createdAt,value
2023-05-26T00:01:47.636Z,51.72
2023-05-26T00:04:18.458Z,52.30
2023-05-26T00:06:54.463Z,52.57
2023-05-26T00:09:22.631Z,52.44
2023-05-26T00:11:49.848Z,52.39
2023-05-26T00:14:17.916Z,52.56
2023-05-26T00:16:46.308Z,52.55
2023-05-26T00:19:14.421Z,52.70
2023-05-26T00:21:41.940Z,52.90
2023-05-26T00:24:09.023Z,53.31
2023-05-26T00:26:36.127Z,53.44
2023-05-26T00:29:04.569Z,53.63
2023-05-26T00:31:32.828Z,53.70
2023-05-26T00:34:00.068Z,53.97
2023-05-26T00:36:27.551Z,53.90
2023-05-26T00:38:54.605Z,54.16
2023-05-26T00:41:21.819Z,54.17
2023-05-26T00:43:49.005Z,54.09
2023-05-26T00:46:16.154Z,54.40
2023-05-26T00:48:43.915Z,54.81
2023-05-26T00:51:13.169Z,55.06
2023-05-26T00:53:44.804Z,54.99
2023-05-26T00:56:13.328Z,54.79
2023-05-26T00:58:40.404Z,54.73
2023-05-26T01:01:07.850Z,54.74
2023-05-26T01:03:36.355Z,54.71
2023-05-26T01:06:04.513Z,54.82
2023-05-26T01:08:32.772Z,54.70
2023-05-26T01:11:34.559Z,54.81
2023-05-26T01:14:15.718Z,55.11
2023-05-26T01:16:52.681Z,55.27
2023-05-26T01:19:44.856Z,55.17
2023-05-26T01:22:39.139Z,54.93
2023-05-26T01:25:42.518Z,54.91
2023-05-26T01:28:36.758Z,54.90
2023-05-26T01:31:04.091Z,55.06
2023-05-26T01:33:31.353Z,55.18
2023-05-26T01:35:58.440Z,55.22
2023-05-26T01:38:25.715Z,55.18
2023-05-26T01:41:03.611Z,54.99
2023-05-26T01:44:17.132Z,54.80
2023-05-26T01:46:53.634Z,55.17
2023-05-26T01:49:25.467Z,55.29
2023-05-26T01:52:01.854Z,55.44
2023-05-26T01:54:37.942Z,55.30
2023-05-26T01:57:07.484Z,55.44
2023-05-26T01:59:36.051Z,55.48
2023-05-26T02:02:03.256Z,55.29
2023-05-26T02:04:30.942Z,55.48
2023-05-26T02:06:58.667Z,55.51
2023-05-26T02:09:25.953Z,55.45
2023-05-26T02:11:53.102Z,55.44
2023-05-26T02:14:20.258Z,55.51
2023-05-26T02:16:47.484Z,55.43
2023-05-26T02:19:14.779Z,55.64
2023-05-26T02:21:42.094Z,55.70
2023-05-26T02:24:09.317Z,55.63
2023-05-26T02:26:38.728Z,55.26
2023-05-26T02:29:07.257Z,55.21
2023-05-26T02:31:41.881Z,55.27
2023-05-26T02:34:11.475Z,55.25
2023-05-26T02:36:38.787Z,55.22
2023-05-26T02:39:05.958Z,55.11
2023-05-26T02:41:33.090Z,55.26
2023-05-26T02:44:00.369Z,54.85
2023-05-26T02:46:30.706Z,55.04
2023-05-26T02:49:01.446Z,54.92
2023-05-26T02:51:29.027Z,54.57
2023-05-26T02:53:56.156Z,54.39
2023-05-26T02:56:23.312Z,54.03
2023-05-26T02:58:50.473Z,53.98
2023-05-26T03:01:17.794Z,53.99
2023-05-26T03:03:45.133Z,53.54
2023-05-26T03:06:12.351Z,53.43
2023-05-26T03:08:39.611Z,53.16
2023-05-26T03:11:10.301Z,53.23
2023-05-26T03:13:41.648Z,53.23
2023-05-26T03:16:09.039Z,52.82
2023-05-26T03:18:36.702Z,52.84
2023-05-26T03:21:05.472Z,52.71
2023-05-26T03:23:32.718Z,52.58
2023-05-26T03:26:00.265Z,52.63
2023-05-26T03:28:30.988Z,52.71
2023-05-26T03:30:59.644Z,52.44
2023-05-26T03:33:30.058Z,52.76
2023-05-26T03:36:00.054Z,52.64
2023-05-26T03:38:28.634Z,52.60
2023-05-26T03:40:58.552Z,52.63
2023-05-26T03:43:27.738Z,52.79
2023-05-26T03:45:55.584Z,53.07
2023-05-26T03:48:22.824Z,52.92
2023-05-26T03:50:50.940Z,52.60
2023-05-26T03:53:18.878Z,52.47
2023-05-26T03:55:46.315Z,52.46
2023-05-26T03:58:13.711Z,52.13
2023-05-26T04:00:41.348Z,52.07
2023-05-26T04:03:08.620Z,51.53
2023-05-26T04:05:36.482Z,51.33
2023-05-26T04:08:03.617Z,50.90
2023-05-26T04:10:30.873Z,51.24
2023-05-26T04:12:58.785Z,51.28
2023-05-26T04:15:26.045Z,51.11
2023-05-26T04:17:53.240Z,51.53
2023-05-26T04:20:20.997Z,51.48
2023-05-26T04:22:48.350Z,50.59
2023-05-26T04:25:17.950Z,50.84
2023-05-26T04:28:05.396Z,51.05
2023-05-26T04:30:58.996Z,50.61
2023-05-26T04:33:46.387Z,50.19
2023-05-26T04:36:36.787Z,50.10
2023-05-26T04:39:04.094Z,49.83
2023-05-26T04:41:33.984Z,49.32
2023-05-26T04:44:01.947Z,48.59
2023-05-26T04:46:32.153Z,48.65
2023-05-26T04:48:59.467Z,49.18
2023-05-26T04:51:26.806Z,49.21
2023-05-26T04:53:54.006Z,48.93
2023-05-26T04:56:21.319Z,48.27
2023-05-26T04:58:53.585Z,47.97
2023-05-26T05:01:21.607Z,48.01
2023-05-26T05:03:54.269Z,48.04
2023-05-26T05:06:32.109Z,47.57
2023-05-26T05:09:00.211Z,47.44
2023-05-26T05:11:28.314Z,47.21
2023-05-26T05:13:56.502Z,47.07
2023-05-26T05:16:24.756Z,46.38
2023-05-26T05:18:52.555Z,46.39
2023-05-26T05:21:22.545Z,45.85
2023-05-26T05:23:52.666Z,44.90
2023-05-26T05:26:20.343Z,44.71
2023-05-26T05:28:47.811Z,44.78
2023-05-26T05:31:38.643Z,44.06
2023-05-26T05:34:06.133Z,44.37
2023-05-26T05:36:34.314Z,44.06
2023-05-26T05:39:02.745Z,44.02
2023-05-26T05:41:30.192Z,44.61
2023-05-26T05:43:58.290Z,44.73
2023-05-26T05:46:27.353Z,44.73
2023-05-26T05:48:59.149Z,44.51
2023-05-26T05:51:31.210Z,44.14
2023-05-26T05:53:58.304Z,43.90
2023-05-26T05:56:27.799Z,44.01
2023-05-26T05:58:55.897Z,43.63
2023-05-26T06:01:23.842Z,43.75
2023-05-26T06:03:51.983Z,44.09
2023-05-26T06:06:19.737Z,44.22
2023-05-26T06:08:46.852Z,44.47
2023-05-26T06:11:14.103Z,44.68
2023-05-26T06:13:44.288Z,45.73
2023-05-26T06:16:13.746Z,45.24
2023-05-26T06:18:41.484Z,45.78
2023-05-26T06:21:08.987Z,45.59
2023-05-26T06:23:36.832Z,45.97
2023-05-26T06:26:04.547Z,46.98
2023-05-26T06:28:32.027Z,46.90
2023-05-26T06:30:59.373Z,48.07
2023-05-26T06:33:39.292Z,47.40
2023-05-26T06:36:07.399Z,47.27
2023-05-26T06:38:35.301Z,46.51
2023-05-26T06:41:07.964Z,46.44
2023-05-26T06:43:36.524Z,46.33
2023-05-26T06:46:06.209Z,45.20
2023-05-26T06:48:35.957Z,44.89
2023-05-26T06:51:23.748Z,44.37
2023-05-26T06:53:52.247Z,43.91
2023-05-26T06:56:19.399Z,44.44
2023-05-26T06:58:46.519Z,44.01
2023-05-26T07:01:14.241Z,42.98
2023-05-26T07:03:44.618Z,41.70
2023-05-26T07:06:12.917Z,41.56
2023-05-26T07:08:41.045Z,40.90
2023-05-26T07:11:27.367Z,40.04
2023-05-26T07:13:58.673Z,40.67
2023-05-26T07:16:26.521Z,40.91
2023-05-26T07:18:53.762Z,40.64
2023-05-26T07:21:23.674Z,39.97
2023-05-26T07:23:51.900Z,39.60
2023-05-26T07:26:21.091Z,40.33
2023-05-26T07:28:50.478Z,40.34
2023-05-26T07:31:19.249Z,39.78
2023-05-26T07:33:53.931Z,39.95
2023-05-26T07:36:21.290Z,39.55
2023-05-26T07:38:48.785Z,39.94
2023-05-26T07:41:16.000Z,40.56
2023-05-26T07:43:43.479Z,40.48
2023-05-26T07:46:11.246Z,40.48
2023-05-26T07:48:39.822Z,40.93
2023-05-26T07:51:07.251Z,40.88
2023-05-26T07:53:35.930Z,40.91
2023-05-26T07:56:03.280Z,40.75
2023-05-26T07:58:30.713Z,40.71
2023-05-26T08:00:58.273Z,40.43
2023-05-26T08:03:26.156Z,40.15
2023-05-26T08:05:53.559Z,40.08
2023-05-26T08:08:20.974Z,39.13
2023-05-26T08:10:48.261Z,39.10
2023-05-26T08:13:15.970Z,38.97
2023-05-26T08:15:43.505Z,39.24
2023-05-26T08:18:13.673Z,38.45
2023-05-26T08:20:40.908Z,39.18
2023-05-26T08:23:09.266Z,39.65
2023-05-26T08:25:36.585Z,38.64
2023-05-26T08:28:04.333Z,38.14
2023-05-26T08:30:35.225Z,37.42
2023-05-26T08:33:05.729Z,36.79
2023-05-26T08:35:32.993Z,37.20
2023-05-26T08:38:00.629Z,37.64
2023-05-26T08:40:28.153Z,37.40
2023-05-26T08:42:59.627Z,36.96
2023-05-26T08:45:27.373Z,36.55
2023-05-26T08:47:57.407Z,36.50
2023-05-26T08:50:26.056Z,35.58
2023-05-26T08:55:42.030Z,35.33
2023-05-26T08:58:10.814Z,34.95
2023-05-26T09:00:41.043Z,35.23
2023-05-26T09:03:09.513Z,35.36
2023-05-26T09:05:37.078Z,35.76
2023-05-26T09:08:06.082Z,35.49
2023-05-26T09:10:34.553Z,35.03
2023-05-26T09:13:10.817Z,34.28
2023-05-26T09:15:39.444Z,34.17
2023-05-26T09:18:16.159Z,34.37
2023-05-26T09:20:50.289Z,33.68
2023-05-26T09:23:22.611Z,33.36
2023-05-26T09:25:52.679Z,33.35
2023-05-26T09:28:21.716Z,32.68
2023-05-26T09:30:49.353Z,33.17
2023-05-26T09:33:18.558Z,33.47
2023-05-26T09:35:48.637Z,34.65
2023-05-26T09:38:19.080Z,33.69
2023-05-26T09:40:49.130Z,33.26
2023-05-26T09:43:21.296Z,32.82
2023-05-26T09:45:48.768Z,32.90
2023-05-26T09:48:16.903Z,33.17
2023-05-26T09:50:44.371Z,33.88
2023-05-26T09:53:12.423Z,33.43
2023-05-26T09:55:42.185Z,33.79
2023-05-26T09:58:12.472Z,33.40
2023-05-26T10:00:45.094Z,33.37
2023-05-26T10:03:13.026Z,33.36
2023-05-26T10:05:46.699Z,33.04
2023-05-26T10:08:21.153Z,33.11
2023-05-26T10:10:50.953Z,29.92
2023-05-26T10:13:19.776Z,30.39
2023-05-26T10:15:50.474Z,30.72
2023-05-26T10:18:18.042Z,31.63
2023-05-26T10:20:51.540Z,32.01
2023-05-26T10:23:29.907Z,31.43
2023-05-26T10:26:24.402Z,32.12
2023-05-26T10:28:58.635Z,32.35
2023-05-26T10:31:35.792Z,32.75
2023-05-26T10:34:43.937Z,32.42
2023-05-26T10:37:17.879Z,33.09
2023-05-26T10:39:45.760Z,32.78
2023-05-26T10:42:18.589Z,32.63
2023-05-26T10:44:50.182Z,32.68
2023-05-26T10:47:21.037Z,32.60
2023-05-26T10:50:00.276Z,31.82
2023-05-26T10:52:29.335Z,30.46
2023-05-26T10:55:03.239Z,29.82
2023-05-26T10:57:35.383Z,29.29
2023-05-26T11:00:27.963Z,29.59
2023-05-26T11:02:55.396Z,28.72
2023-05-26T11:05:35.109Z,28.50
2023-05-26T11:08:02.578Z,27.70
2023-05-26T11:11:01.437Z,27.73
2023-05-26T11:13:50.109Z,28.21
2023-05-26T11:16:26.049Z,27.16
2023-05-26T11:18:58.831Z,28.59
2023-05-26T11:21:29.208Z,28.20
2023-05-26T11:23:58.360Z,28.38
2023-05-26T11:26:29.159Z,29.44
2023-05-26T11:28:56.459Z,28.47
2023-05-26T11:31:28.955Z,28.50
2023-05-26T11:33:57.419Z,28.47
2023-05-26T11:36:25.356Z,28.38
2023-05-26T11:38:57.922Z,28.72
2023-05-26T11:41:26.981Z,29.05
2023-05-26T11:43:56.311Z,27.73
2023-05-26T11:46:27.252Z,27.73
2023-05-26T11:49:00.635Z,26.13
2023-05-26T11:51:33.481Z,26.26
2023-05-26T11:54:02.112Z,25.57
2023-05-26T11:56:35.650Z,25.00
2023-05-26T11:59:04.573Z,24.41
2023-05-26T12:01:34.481Z,22.69
2023-05-26T12:04:05.744Z,21.70
2023-05-26T12:06:35.000Z,20.98
2023-05-26T12:09:20.886Z,20.98
2023-05-26T12:11:53.853Z,20.98
2023-05-26T12:14:23.857Z,20.32
2023-05-26T12:16:54.413Z,20.32
2023-05-26T12:19:25.688Z,19.20
2023-05-26T12:22:00.305Z,19.20
2023-05-26T12:24:35.656Z,19.15
2023-05-26T12:27:13.286Z,19.15
2023-05-26T12:29:45.165Z,17.87
2023-05-26T12:32:13.320Z,17.87
2023-05-26T12:34:41.938Z,18.27
2023-05-26T12:37:09.522Z,17.90
2023-05-26T12:39:39.520Z,18.27
2023-05-26T12:42:07.325Z,18.27
2023-05-26T12:44:34.754Z,19.15
2023-05-26T12:47:02.521Z,19.15
2023-05-26T12:49:29.715Z,18.37
2023-05-26T12:51:57.037Z,19.15
2023-05-26T12:54:24.262Z,17.92
2023-05-26T12:56:51.613Z,18.27
2023-05-26T12:59:21.214Z,17.92
2023-05-26T13:01:49.490Z,19.15
2023-05-26T13:04:19.613Z,19.15
2023-05-26T13:06:52.571Z,17.68
2023-05-26T13:09:20.939Z,17.68
2023-05-26T13:11:48.977Z,16.98
2023-05-26T13:14:16.390Z,16.78
2023-05-26T13:16:44.182Z,17.38
2023-05-26T13:19:14.297Z,17.38
2023-05-26T13:21:44.723Z,17.38
2023-05-26T13:24:12.001Z,16.78
2023-05-26T13:26:39.210Z,16.78
2023-05-26T13:29:08.696Z,16.95
2023-05-26T13:31:36.019Z,16.94
2023-05-26T13:34:03.157Z,17.40
2023-05-26T13:36:30.328Z,17.15
2023-05-26T13:38:57.550Z,17.38
2023-05-26T13:41:25.006Z,17.96
2023-05-26T13:43:52.280Z,17.56
2023-05-26T13:46:21.741Z,17.58
2023-05-26T13:48:49.179Z,18.27
2023-05-26T13:51:16.481Z,18.01
2023-05-26T13:53:43.634Z,18.01
2023-05-26T13:56:24.885Z,18.01
2023-05-26T13:58:54.188Z,18.08
2023-05-26T14:01:36.089Z,18.27
2023-05-26T14:04:06.952Z,18.27
2023-05-26T14:06:37.390Z,17.38
2023-05-26T14:09:08.173Z,17.18
2023-05-26T14:11:35.698Z,17.18
2023-05-26T14:14:02.830Z,17.38
2023-05-26T14:16:30.018Z,17.38
2023-05-26T14:19:06.385Z,16.58
2023-05-26T14:22:05.992Z,17.40
2023-05-26T14:24:24.698Z,17.10
2023-05-26T14:26:51.886Z,17.10
2023-05-26T14:29:19.349Z,16.76
2023-05-26T14:31:46.592Z,16.76
2023-05-26T14:34:13.891Z,16.76
2023-05-26T14:36:41.100Z,16.76
2023-05-26T14:39:10.193Z,17.38
2023-05-26T14:41:37.293Z,17.16
2023-05-26T14:44:04.309Z,17.17
2023-05-26T14:46:32.015Z,17.16
2023-05-26T14:48:59.494Z,17.16
2023-05-26T14:51:26.730Z,16.92
2023-05-26T14:53:53.849Z,16.92
2023-05-26T14:56:21.827Z,17.46
2023-05-26T14:58:49.062Z,17.46
2023-05-26T15:01:16.404Z,17.38
2023-05-26T15:06:16.509Z,17.58
2023-05-26T15:08:44.497Z,17.58
2023-05-26T15:11:11.807Z,16.92
2023-05-26T15:13:38.883Z,16.92
2023-05-26T15:16:06.342Z,17.40
2023-05-26T15:18:33.493Z,17.38
2023-05-26T15:21:03.493Z,16.51
2023-05-26T15:23:33.579Z,16.27
2023-05-26T15:26:01.253Z,16.26
2023-05-26T15:28:28.846Z,16.50
2023-05-26T15:30:57.768Z,16.25
2023-05-26T15:33:26.501Z,17.07
2023-05-26T15:35:53.608Z,16.92
2023-05-26T15:38:20.829Z,17.40
2023-05-26T15:40:48.312Z,16.91
2023-05-26T15:43:15.740Z,16.92
2023-05-26T15:45:42.833Z,18.27
2023-05-26T15:48:17.791Z,17.55
2023-05-26T15:50:45.840Z,19.15
2023-05-26T15:53:13.461Z,18.52
2023-05-26T15:55:40.703Z,18.52
2023-05-26T15:58:08.006Z,19.17
2023-05-26T16:00:35.140Z,17.04
2023-05-26T16:03:02.424Z,17.05
2023-05-26T16:05:29.629Z,17.38
2023-05-26T16:07:56.852Z,17.40
2023-05-26T16:10:24.029Z,18.27
2023-05-26T16:12:51.242Z,17.50
2023-05-26T16:15:20.950Z,18.27
2023-05-26T16:17:48.523Z,18.27
2023-05-26T16:20:16.523Z,17.09
2023-05-26T16:22:49.304Z,17.38
2023-05-26T16:25:17.893Z,17.38
2023-05-26T16:27:46.342Z,17.09
2023-05-26T16:30:14.336Z,17.38
2023-05-26T16:32:42.907Z,17.09
2023-05-26T16:35:16.425Z,17.38
2023-05-26T16:37:43.545Z,17.08
2023-05-26T16:40:11.199Z,16.89
2023-05-26T16:42:38.336Z,17.06
2023-05-26T16:45:06.050Z,17.05
2023-05-26T16:47:33.142Z,17.03
2023-05-26T16:50:00.299Z,17.03
2023-05-26T16:52:27.378Z,17.07
2023-05-26T16:54:54.456Z,17.38
2023-05-26T16:57:21.807Z,17.38
2023-05-26T16:59:49.069Z,17.07
2023-05-26T17:02:16.351Z,17.38
2023-05-26T17:04:43.885Z,17.07
2023-05-26T17:07:10.989Z,17.38
2023-05-26T17:09:38.132Z,17.07
2023-05-26T17:12:06.412Z,17.07
2023-05-26T17:14:33.756Z,17.40
2023-05-26T17:17:02.538Z,17.79
2023-05-26T17:19:29.968Z,17.79
2023-05-26T17:21:57.165Z,17.79
2023-05-26T17:24:24.528Z,18.27
2023-05-26T17:26:53.018Z,17.79
2023-05-26T17:29:22.025Z,17.79
2023-05-26T17:31:52.905Z,19.15
2023-05-26T17:34:20.124Z,19.22
2023-05-26T17:36:47.325Z,19.29
2023-05-26T17:39:14.774Z,19.45
2023-05-26T17:41:42.730Z,19.45
2023-05-26T17:44:12.199Z,19.61
2023-05-26T17:46:39.937Z,19.39
2023-05-26T17:49:07.572Z,19.80
2023-05-26T17:51:34.841Z,19.80
2023-05-26T17:54:02.001Z,19.80
2023-05-26T17:56:29.268Z,19.80
2023-05-26T17:58:56.537Z,21.01
2023-05-26T18:01:23.660Z,21.10
2023-05-26T18:03:51.460Z,21.25
2023-05-26T18:06:18.650Z,21.02
2023-05-26T18:08:46.168Z,21.35
2023-05-26T18:11:13.487Z,22.69
2023-05-26T18:13:41.265Z,22.31
2023-05-26T18:16:08.463Z,23.01
2023-05-26T18:18:36.981Z,23.79
2023-05-26T18:21:05.123Z,24.71
2023-05-26T18:23:32.880Z,25.30
2023-05-26T18:26:00.518Z,25.96
2023-05-26T18:28:27.759Z,26.27
2023-05-26T18:30:57.979Z,26.31
2023-05-26T18:33:28.799Z,26.84
2023-05-26T18:35:56.452Z,27.10
2023-05-26T18:38:23.774Z,27.32
2023-05-26T18:40:51.389Z,27.67
2023-05-26T18:43:18.728Z,27.67
2023-05-26T18:45:47.154Z,28.01
2023-05-26T18:48:14.537Z,28.18
2023-05-26T18:50:42.028Z,28.02
2023-05-26T18:53:10.152Z,28.10
2023-05-26T18:55:37.838Z,28.26
2023-05-26T18:58:06.702Z,28.88
2023-05-26T19:00:34.180Z,28.99
2023-05-26T19:03:01.608Z,29.06
2023-05-26T19:05:29.216Z,29.24
2023-05-26T19:07:56.398Z,29.29
2023-05-26T19:10:23.596Z,29.46
2023-05-26T19:12:50.787Z,29.50
2023-05-26T19:15:19.199Z,29.35
2023-05-26T19:17:47.594Z,29.57
2023-05-26T19:20:14.950Z,29.63
2023-05-26T19:22:43.357Z,29.59
2023-05-26T19:25:11.609Z,29.70
2023-05-26T19:27:38.739Z,29.67
2023-05-26T19:30:09.223Z,29.84
2023-05-26T19:32:36.824Z,29.78
2023-05-26T19:35:04.670Z,29.71
2023-05-26T19:37:33.550Z,29.93
2023-05-26T19:40:01.432Z,29.88
2023-05-26T19:42:28.652Z,29.82
2023-05-26T19:44:56.080Z,29.75
2023-05-26T19:47:23.535Z,29.75
2023-05-26T19:49:51.068Z,29.76
2023-05-26T19:52:18.310Z,29.81
2023-05-26T19:54:46.408Z,30.13
2023-05-26T19:57:42.822Z,30.00
2023-05-26T20:00:10.947Z,30.49
2023-05-26T20:02:38.832Z,30.53
2023-05-26T20:05:07.276Z,30.42
2023-05-26T20:07:36.544Z,30.47
2023-05-26T20:10:04.422Z,30.63
2023-05-26T20:12:31.957Z,30.82
2023-05-26T20:15:00.173Z,30.91
2023-05-26T20:17:27.746Z,30.91
2023-05-26T20:20:11.729Z,31.03
2023-05-26T20:22:41.195Z,31.31
2023-05-26T20:25:09.011Z,31.55
2023-05-26T20:27:39.559Z,31.62
2023-05-26T20:30:08.471Z,31.83
2023-05-26T20:32:36.565Z,31.85
2023-05-26T20:35:05.091Z,32.10
2023-05-26T20:37:32.570Z,32.17
2023-05-26T20:40:00.228Z,32.26
2023-05-26T20:42:32.939Z,32.19
2023-05-26T20:45:04.341Z,32.51
2023-05-26T20:47:32.034Z,32.50
2023-05-26T20:49:59.180Z,32.61
2023-05-26T20:52:26.835Z,32.74
2023-05-26T20:54:53.964Z,32.87
2023-05-26T20:57:22.316Z,33.48
2023-05-26T20:59:49.431Z,33.48
2023-05-26T21:02:16.667Z,33.75
2023-05-26T21:04:43.885Z,33.84
2023-05-26T21:07:11.068Z,34.11
2023-05-26T21:09:38.282Z,34.40
2023-05-26T21:12:07.565Z,34.07
2023-05-26T21:14:36.605Z,34.13
2023-05-26T21:17:04.031Z,34.28
2023-05-26T21:19:31.274Z,34.28
2023-05-26T21:21:58.378Z,34.22
2023-05-26T21:24:26.148Z,34.37
2023-05-26T21:26:53.337Z,34.42
2023-05-26T21:29:20.523Z,34.42
2023-05-26T21:31:47.889Z,34.49
2023-05-26T21:34:15.037Z,34.80
2023-05-26T21:36:42.172Z,34.98
2023-05-26T21:39:09.349Z,35.16
2023-05-26T21:41:41.122Z,35.05
2023-05-26T21:44:08.270Z,35.38
2023-05-26T21:46:35.487Z,35.27
2023-05-26T21:49:02.849Z,35.49
2023-05-26T21:51:30.005Z,35.50
2023-05-26T21:53:57.153Z,35.67
2023-05-26T21:56:24.589Z,35.68
2023-05-26T21:58:51.680Z,35.79
2023-05-26T22:01:18.808Z,36.06
2023-05-26T22:03:46.014Z,36.10
2023-05-26T22:06:13.317Z,36.21
2023-05-26T22:08:41.152Z,36.37
2023-05-26T22:11:08.315Z,36.28
2023-05-26T22:13:35.400Z,36.28
2023-05-26T22:16:03.021Z,36.95
2023-05-26T22:18:30.218Z,36.88
2023-05-26T22:20:57.500Z,37.01
2023-05-26T22:23:24.615Z,37.08
2023-05-26T22:25:51.928Z,37.53
2023-05-26T22:28:19.104Z,37.40
2023-05-26T22:31:03.264Z,38.02
2023-05-26T22:33:30.826Z,38.06
2023-05-26T22:35:58.242Z,37.98
2023-05-26T22:38:27.050Z,38.27
2023-05-26T22:40:54.444Z,38.34
2023-05-26T22:43:22.962Z,38.63
2023-05-26T22:45:50.596Z,38.67
2023-05-26T22:48:17.841Z,38.44
2023-05-26T22:50:45.433Z,38.83
2023-05-26T22:53:13.024Z,39.07
2023-05-26T22:56:08.994Z,39.32
2023-05-26T22:58:27.696Z,39.38
2023-05-26T23:00:56.734Z,39.58
2023-05-26T23:03:24.123Z,39.69
2023-05-26T23:05:58.051Z,40.10
2023-05-26T23:08:25.457Z,40.06
2023-05-26T23:10:52.865Z,39.92
2023-05-26T23:13:21.715Z,40.42
2023-05-26T23:15:49.137Z,40.59
2023-05-26T23:18:19.643Z,40.60
2023-05-26T23:20:46.879Z,40.69
2023-05-26T23:23:14.318Z,41.00
2023-05-26T23:25:41.948Z,41.10
2023-05-26T23:28:10.970Z,41.01
2023-05-26T23:30:38.084Z,41.12
2023-05-26T23:33:05.299Z,41.11
2023-05-26T23:35:32.474Z,41.35
2023-05-26T23:38:02.432Z,41.63
2023-05-26T23:40:30.312Z,41.44
2023-05-26T23:42:59.785Z,41.92
2023-05-26T23:45:28.398Z,41.62
2023-05-26T23:47:56.341Z,41.76
2023-05-26T23:50:23.618Z,41.73
2023-05-26T23:52:50.746Z,42.03
2023-05-26T23:55:19.506Z,42.44
2023-05-26T23:57:46.644Z,42.85
